sensor_id;sensor_type;location;lat;lon;timestamp;pressure;altitude;pressure_sealevel;temperature;humidity
55757;BME280;41676;44.610;44.078;2023-03-20T00:02:18;100151.84;;;6.42;92.91
55757;BME280;41676;44.610;44.078;2023-03-20T00:07:19;100046.47;;;5.75;92.77
55757;BME280;41676;44.610;44.078;2023-03-20T00:12:23;100085.41;;;5.91;94.39
55757;BME280;41676;44.610;44.078;2023-03-20T00:17:25;100154.72;;;6.21;94.76
55757;BME280;41676;44.610;44.078;2023-03-20T00:22:26;100104.28;;;5.86;95.80
55757;BME280;41676;44.610;44.078;2023-03-20T00:27:28;100129.38;;;5.90;96.05
55757;BME280;41676;44.610;44.078;2023-03-20T00:32:29;100091.84;;;5.59;96.17
55757;BME280;41676;44.610;44.078;2023-03-20T00:37:30;100064.47;;;5.33;96.29
55757;BME280;41676;44.610;44.078;2023-03-20T00:42:31;100058.22;;;5.34;97.12
55757;BME280;41676;44.610;44.078;2023-03-20T00:47:34;100144.78;;;5.85;99.32
55757;BME280;41676;44.610;44.078;2023-03-20T00:52:37;100157.84;;;5.87;98.42
55757;BME280;41676;44.610;44.078;2023-03-20T00:57:42;100115.16;;;5.64;98.74
55757;BME280;41676;44.610;44.078;2023-03-20T01:02:43;100034.81;;;5.11;99.07
55757;BME280;41676;44.610;44.078;2023-03-20T01:07:45;100127.06;;;5.68;98.67
55757;BME280;41676;44.610;44.078;2023-03-20T01:12:46;99966.84;;;4.68;99.11
55757;BME280;41676;44.610;44.078;2023-03-20T01:17:48;100081.06;;;5.43;99.46
55757;BME280;41676;44.610;44.078;2023-03-20T01:22:49;100155.88;;;5.89;99.59
55757;BME280;41676;44.610;44.078;2023-03-20T01:27:51;100155.59;;;5.92;99.79
55757;BME280;41676;44.610;44.078;2023-03-20T01:32:52;100172.00;;;5.96;99.36
55757;BME280;41676;44.610;44.078;2023-03-20T01:37:54;100168.09;;;6.00;99.36
55757;BME280;41676;44.610;44.078;2023-03-20T01:42:55;100096.75;;;5.54;100.00
55757;BME280;41676;44.610;44.078;2023-03-20T01:47:56;100150.34;;;5.82;100.00
55757;BME280;41676;44.610;44.078;2023-03-20T01:53:09;100161.31;;;5.97;100.00
55757;BME280;41676;44.610;44.078;2023-03-20T01:58:34;100162.41;;;5.94;100.00
55757;BME280;41676;44.610;44.078;2023-03-20T02:03:37;100130.56;;;5.68;100.00
55757;BME280;41676;44.610;44.078;2023-03-20T02:08:48;100161.16;;;5.89;100.00
55757;BME280;41676;44.610;44.078;2023-03-20T02:13:54;100170.03;;;5.98;100.00
55757;BME280;41676;44.610;44.078;2023-03-20T02:18:57;100126.13;;;5.69;100.00
55757;BME280;41676;44.610;44.078;2023-03-20T02:39:46;100097.88;;;5.13;100.00
55757;BME280;41676;44.610;44.078;2023-03-20T02:50:26;100121.00;;;5.29;100.00
55757;BME280;41676;44.610;44.078;2023-03-20T02:55:47;100160.91;;;5.72;100.00
55757;BME280;41676;44.610;44.078;2023-03-20T03:06:04;100160.94;;;5.63;100.00
55757;BME280;41676;44.610;44.078;2023-03-20T03:11:07;100059.91;;;5.15;100.00
55757;BME280;41676;44.610;44.078;2023-03-20T03:16:13;100157.56;;;5.80;100.00
55757;BME280;41676;44.610;44.078;2023-03-20T03:21:17;100084.56;;;5.24;100.00
55757;BME280;41676;44.610;44.078;2023-03-20T03:26:27;100085.28;;;5.07;100.00
55757;BME280;41676;44.610;44.078;2023-03-20T03:31:31;100168.69;;;5.16;100.00
55757;BME280;41676;44.610;44.078;2023-03-20T03:41:55;100177.84;;;5.12;100.00
55757;BME280;41676;44.610;44.078;2023-03-20T03:47:05;100186.69;;;5.20;100.00
55757;BME280;41676;44.610;44.078;2023-03-20T03:52:10;100167.31;;;5.12;100.00
55757;BME280;41676;44.610;44.078;2023-03-20T03:57:12;100135.16;;;5.18;100.00
55757;BME280;41676;44.610;44.078;2023-03-20T04:02:17;100167.44;;;5.59;100.00
55757;BME280;41676;44.610;44.078;2023-03-20T04:07:19;100200.03;;;5.87;100.00
55757;BME280;41676;44.610;44.078;2023-03-20T04:12:42;100193.72;;;6.27;100.00
55757;BME280;41676;44.610;44.078;2023-03-20T04:17:43;100194.84;;;6.52;100.00
55757;BME280;41676;44.610;44.078;2023-03-20T04:22:44;100159.63;;;6.43;99.13
55757;BME280;41676;44.610;44.078;2023-03-20T04:27:46;100193.84;;;6.62;99.48
55757;BME280;41676;44.610;44.078;2023-03-20T04:32:47;100168.22;;;6.45;99.94
55757;BME280;41676;44.610;44.078;2023-03-20T04:37:47;100193.47;;;6.85;100.00
55757;BME280;41676;44.610;44.078;2023-03-20T04:42:48;100137.22;;;6.75;99.79
55757;BME280;41676;44.610;44.078;2023-03-20T04:47:49;100184.75;;;7.20;99.31
55757;BME280;41676;44.610;44.078;2023-03-20T04:52:50;100093.56;;;6.80;99.58
55757;BME280;41676;44.610;44.078;2023-03-20T04:57:51;100190.03;;;7.56;99.62
55757;BME280;41676;44.610;44.078;2023-03-20T05:02:54;100089.88;;;7.27;99.13
55757;BME280;41676;44.610;44.078;2023-03-20T05:07:55;100193.72;;;8.07;98.10
55757;BME280;41676;44.610;44.078;2023-03-20T05:12:56;100185.78;;;8.07;97.74
55757;BME280;41676;44.610;44.078;2023-03-20T05:17:57;100122.72;;;7.68;97.41
55757;BME280;41676;44.610;44.078;2023-03-20T05:22:58;100137.34;;;8.07;97.15
55757;BME280;41676;44.610;44.078;2023-03-20T05:27:58;100106.88;;;8.29;95.66
55757;BME280;41676;44.610;44.078;2023-03-20T05:32:59;100138.69;;;8.87;94.77
55757;BME280;41676;44.610;44.078;2023-03-20T05:38:00;100211.84;;;9.55;94.18
55757;BME280;41676;44.610;44.078;2023-03-20T05:43:01;100173.72;;;9.56;93.82
55757;BME280;41676;44.610;44.078;2023-03-20T05:48:02;100191.94;;;10.09;92.83
55757;BME280;41676;44.610;44.078;2023-03-20T05:53:02;100191.72;;;10.35;91.49
55757;BME280;41676;44.610;44.078;2023-03-20T05:58:04;100192.78;;;10.65;90.23
55757;BME280;41676;44.610;44.078;2023-03-20T06:03:05;100130.41;;;10.61;89.67
55757;BME280;41676;44.610;44.078;2023-03-20T06:08:08;100154.28;;;11.23;86.80
55757;BME280;41676;44.610;44.078;2023-03-20T06:13:09;100191.75;;;11.82;85.56
55757;BME280;41676;44.610;44.078;2023-03-20T06:18:10;100095.53;;;11.56;84.08
55757;BME280;41676;44.610;44.078;2023-03-20T06:23:10;100143.53;;;12.30;82.24
55757;BME280;41676;44.610;44.078;2023-03-20T06:28:11;100157.97;;;12.36;77.26
55757;BME280;41676;44.610;44.078;2023-03-20T06:33:12;100129.00;;;12.47;75.78
55757;BME280;41676;44.610;44.078;2023-03-20T06:38:13;100112.09;;;12.55;73.50
55757;BME280;41676;44.610;44.078;2023-03-20T06:43:14;100101.72;;;12.45;69.39
55757;BME280;41676;44.610;44.078;2023-03-20T06:48:15;100164.00;;;13.10;69.91
55757;BME280;41676;44.610;44.078;2023-03-20T06:53:21;100128.91;;;12.92;67.25
55757;BME280;41676;44.610;44.078;2023-03-20T06:58:21;100131.91;;;13.03;67.58
55757;BME280;41676;44.610;44.078;2023-03-20T07:03:22;100138.66;;;13.21;66.68
55757;BME280;41676;44.610;44.078;2023-03-20T07:08:23;100149.22;;;13.51;65.98
55757;BME280;41676;44.610;44.078;2023-03-20T07:13:24;100088.47;;;13.10;65.57
55757;BME280;41676;44.610;44.078;2023-03-20T07:18:26;100131.41;;;13.79;65.45
55757;BME280;41676;44.610;44.078;2023-03-20T07:23:30;100131.66;;;14.19;65.14
55757;BME280;41676;44.610;44.078;2023-03-20T07:28:31;100103.50;;;14.23;63.45
55757;BME280;41676;44.610;44.078;2023-03-20T07:33:31;99995.28;;;13.86;63.73
55757;BME280;41676;44.610;44.078;2023-03-20T07:38:32;100095.06;;;14.54;62.40
55757;BME280;41676;44.610;44.078;2023-03-20T07:43:33;100112.91;;;15.02;61.38
55757;BME280;41676;44.610;44.078;2023-03-20T07:48:34;100121.78;;;15.29;62.28
55757;BME280;41676;44.610;44.078;2023-03-20T07:53:35;100107.81;;;15.47;61.44
55757;BME280;41676;44.610;44.078;2023-03-20T07:58:36;100114.44;;;15.71;61.29
55757;BME280;41676;44.610;44.078;2023-03-20T08:03:37;100107.34;;;16.03;60.12
55757;BME280;41676;44.610;44.078;2023-03-20T08:08:38;100085.44;;;16.26;59.32
55757;BME280;41676;44.610;44.078;2023-03-20T08:13:39;100025.13;;;16.10;56.95
55757;BME280;41676;44.610;44.078;2023-03-20T08:18:40;100095.22;;;16.59;59.03
55757;BME280;41676;44.610;44.078;2023-03-20T08:23:41;100085.84;;;17.13;58.54
55757;BME280;41676;44.610;44.078;2023-03-20T08:28:42;100094.25;;;16.92;56.43
55757;BME280;41676;44.610;44.078;2023-03-20T08:33:44;100079.88;;;16.79;58.53
55757;BME280;41676;44.610;44.078;2023-03-20T08:38:47;100084.03;;;17.07;59.21
55757;BME280;41676;44.610;44.078;2023-03-20T08:43:48;100081.53;;;16.74;58.94
55757;BME280;41676;44.610;44.078;2023-03-20T08:48:49;100080.34;;;17.01;60.66
55757;BME280;41676;44.610;44.078;2023-03-20T08:53:50;100081.44;;;17.25;61.26
55757;BME280;41676;44.610;44.078;2023-03-20T08:58:51;100059.88;;;17.07;61.41
55757;BME280;41676;44.610;44.078;2023-03-20T09:03:53;100034.75;;;16.63;62.06
55757;BME280;41676;44.610;44.078;2023-03-20T09:08:54;100014.63;;;16.85;62.73
55757;BME280;41676;44.610;44.078;2023-03-20T09:13:57;100071.78;;;17.43;62.87
55757;BME280;41676;44.610;44.078;2023-03-20T09:18:58;100066.31;;;17.31;63.00
55757;BME280;41676;44.610;44.078;2023-03-20T09:23:59;100009.34;;;17.04;62.18
55757;BME280;41676;44.610;44.078;2023-03-20T09:29:00;100037.97;;;17.10;62.84
55757;BME280;41676;44.610;44.078;2023-03-20T09:34:00;100043.91;;;17.19;63.26
55757;BME280;41676;44.610;44.078;2023-03-20T09:39:01;100051.38;;;17.42;62.36
55757;BME280;41676;44.610;44.078;2023-03-20T09:44:25;99978.44;;;17.20;62.48
55757;BME280;41676;44.610;44.078;2023-03-20T09:54:36;99983.88;;;17.56;61.56
55757;BME280;41676;44.610;44.078;2023-03-20T09:59:39;100001.47;;;17.71;61.93
55757;BME280;41676;44.610;44.078;2023-03-20T10:04:41;100004.06;;;17.84;61.13
55757;BME280;41676;44.610;44.078;2023-03-20T10:09:42;99972.34;;;17.93;60.53
55757;BME280;41676;44.610;44.078;2023-03-20T10:15:00;100012.03;;;18.09;60.71
55757;BME280;41676;44.610;44.078;2023-03-20T10:40:59;99980.06;;;17.64;61.82
55757;BME280;41676;44.610;44.078;2023-03-20T10:51:46;99988.28;;;18.06;60.82
55757;BME280;41676;44.610;44.078;2023-03-20T10:56:47;99988.44;;;18.11;59.80
55757;BME280;41676;44.610;44.078;2023-03-20T11:01:51;99976.03;;;17.73;60.17
55757;BME280;41676;44.610;44.078;2023-03-20T11:07:12;99952.66;;;17.81;60.38
55757;BME280;41676;44.610;44.078;2023-03-20T11:12:16;99969.47;;;18.06;58.86
55757;BME280;41676;44.610;44.078;2023-03-20T11:17:18;99966.88;;;17.99;59.68
55757;BME280;41676;44.610;44.078;2023-03-20T11:27:33;99948.88;;;17.63;59.07
55757;BME280;41676;44.610;44.078;2023-03-20T11:32:38;99902.34;;;17.32;60.11
55757;BME280;41676;44.610;44.078;2023-03-20T11:37:43;99965.97;;;17.50;60.10
55757;BME280;41676;44.610;44.078;2023-03-20T11:43:12;99985.31;;;17.59;60.41
55757;BME280;41676;44.610;44.078;2023-03-20T11:48:20;99909.19;;;17.28;60.98
55757;BME280;41676;44.610;44.078;2023-03-20T11:53:25;99941.09;;;17.37;59.66
55757;BME280;41676;44.610;44.078;2023-03-20T11:58:28;99947.09;;;17.57;60.62
55757;BME280;41676;44.610;44.078;2023-03-20T12:03:42;99974.41;;;17.54;60.81
55757;BME280;41676;44.610;44.078;2023-03-20T12:08:49;99985.91;;;17.18;61.12
55757;BME280;41676;44.610;44.078;2023-03-20T12:13:52;99934.25;;;16.72;61.90
55757;BME280;41676;44.610;44.078;2023-03-20T12:19:10;99979.50;;;16.94;62.63
55757;BME280;41676;44.610;44.078;2023-03-20T12:24:15;99969.03;;;16.85;62.27
55757;BME280;41676;44.610;44.078;2023-03-20T12:29:29;99974.34;;;16.92;62.51
55757;BME280;41676;44.610;44.078;2023-03-20T12:34:36;99977.38;;;17.02;62.45
55757;BME280;41676;44.610;44.078;2023-03-20T12:39:44;99903.66;;;16.80;60.53
55757;BME280;41676;44.610;44.078;2023-03-20T13:01:05;99949.88;;;17.50;60.61
55757;BME280;41676;44.610;44.078;2023-03-20T13:06:19;99958.41;;;17.41;61.10
55757;BME280;41676;44.610;44.078;2023-03-20T13:27:24;99949.81;;;16.88;61.79
55757;BME280;41676;44.610;44.078;2023-03-20T13:38:17;99883.19;;;16.29;61.13
55757;BME280;41676;44.610;44.078;2023-03-20T13:43:32;99940.34;;;16.54;61.52
55757;BME280;41676;44.610;44.078;2023-03-20T13:48:37;99953.16;;;16.52;61.57
55757;BME280;41676;44.610;44.078;2023-03-20T13:53:47;99963.06;;;16.45;61.51
55757;BME280;41676;44.610;44.078;2023-03-20T13:58:52;99956.31;;;16.36;60.84
55757;BME280;41676;44.610;44.078;2023-03-20T14:03:58;99901.75;;;15.92;60.70
55757;BME280;41676;44.610;44.078;2023-03-20T14:09:00;99945.13;;;16.14;60.19
55757;BME280;41676;44.610;44.078;2023-03-20T14:14:13;99943.53;;;16.00;59.44
55757;BME280;41676;44.610;44.078;2023-03-20T14:19:20;99977.50;;;16.06;57.80
55757;BME280;41676;44.610;44.078;2023-03-20T14:24:26;99899.44;;;15.44;56.95
55757;BME280;41676;44.610;44.078;2023-03-20T14:34:46;99984.59;;;15.67;55.43
55757;BME280;41676;44.610;44.078;2023-03-20T15:00:34;100006.09;;;14.94;56.05
55757;BME280;41676;44.610;44.078;2023-03-20T15:05:37;100019.84;;;14.71;56.24
55757;BME280;41676;44.610;44.078;2023-03-20T15:10:47;100027.44;;;14.67;57.27
55757;BME280;41676;44.610;44.078;2023-03-20T15:21:15;99906.22;;;13.59;58.44
55757;BME280;41676;44.610;44.078;2023-03-20T15:26:17;100039.59;;;14.22;59.04
55757;BME280;41676;44.610;44.078;2023-03-20T15:31:28;99985.16;;;13.81;59.42
55757;BME280;41676;44.610;44.078;2023-03-20T15:36:32;100014.78;;;13.86;58.99
55757;BME280;41676;44.610;44.078;2023-03-20T15:41:37;99987.50;;;13.56;59.33
55757;BME280;41676;44.610;44.078;2023-03-20T15:46:38;100052.31;;;13.78;60.04
55757;BME280;41676;44.610;44.078;2023-03-20T15:51:39;100053.06;;;13.65;59.34
55757;BME280;41676;44.610;44.078;2023-03-20T15:56:44;100075.19;;;13.59;59.72
55757;BME280;41676;44.610;44.078;2023-03-20T16:01:48;100060.88;;;13.39;59.94
55757;BME280;41676;44.610;44.078;2023-03-20T16:06:57;100081.38;;;13.38;59.98
55757;BME280;41676;44.610;44.078;2023-03-20T16:12:00;100090.94;;;13.26;60.08
55757;BME280;41676;44.610;44.078;2023-03-20T16:17:02;100084.00;;;13.10;60.36
55757;BME280;41676;44.610;44.078;2023-03-20T16:27:16;100013.75;;;12.39;61.96
55757;BME280;41676;44.610;44.078;2023-03-20T16:32:36;100090.81;;;12.76;62.34
55757;BME280;41676;44.610;44.078;2023-03-20T16:37:42;100103.06;;;12.56;63.14
55757;BME280;41676;44.610;44.078;2023-03-20T16:42:46;100112.66;;;12.50;63.73
55757;BME280;41676;44.610;44.078;2023-03-20T16:47:48;100099.97;;;12.38;64.48
55757;BME280;41676;44.610;44.078;2023-03-20T16:52:51;100122.97;;;12.24;65.92
55757;BME280;41676;44.610;44.078;2023-03-20T16:57:58;100101.28;;;11.97;67.82
55757;BME280;41676;44.610;44.078;2023-03-20T17:04:10;100131.75;;;11.95;72.16
55757;BME280;41676;44.610;44.078;2023-03-20T17:08:47;100136.00;;;11.66;72.83
55757;BME280;41676;44.610;44.078;2023-03-20T17:13:48;100139.63;;;11.50;73.68
55757;BME280;41676;44.610;44.078;2023-03-20T17:24:05;100089.69;;;10.91;76.32
55757;BME280;41676;44.610;44.078;2023-03-20T17:29:06;100159.50;;;11.16;77.86
55757;BME280;41676;44.610;44.078;2023-03-20T17:34:11;100149.97;;;10.99;82.47
55757;BME280;41676;44.610;44.078;2023-03-20T17:39:17;100157.53;;;10.79;84.25
55757;BME280;41676;44.610;44.078;2023-03-20T17:44:18;100066.84;;;10.12;83.60
55757;BME280;41676;44.610;44.078;2023-03-20T17:49:19;100129.34;;;10.39;85.09
55757;BME280;41676;44.610;44.078;2023-03-20T17:54:26;100148.41;;;10.42;86.46
55757;BME280;41676;44.610;44.078;2023-03-20T17:59:26;100133.84;;;10.22;87.93
55757;BME280;41676;44.610;44.078;2023-03-20T18:04:30;100134.72;;;10.14;88.37
55757;BME280;41676;44.610;44.078;2023-03-20T18:09:31;100152.28;;;10.15;89.75
55757;BME280;41676;44.610;44.078;2023-03-20T18:14:32;100138.69;;;10.10;89.75
55757;BME280;41676;44.610;44.078;2023-03-20T18:19:33;100143.50;;;10.15;90.03
55757;BME280;41676;44.610;44.078;2023-03-20T18:24:35;100142.47;;;10.16;90.39
55757;BME280;41676;44.610;44.078;2023-03-20T18:29:36;100078.88;;;9.75;90.99
55757;BME280;41676;44.610;44.078;2023-03-20T18:34:36;100152.94;;;10.17;90.72
55757;BME280;41676;44.610;44.078;2023-03-20T18:39:37;100155.06;;;10.22;90.64
55757;BME280;41676;44.610;44.078;2023-03-20T19:17:43;100175.31;;;10.31;96.78
55757;BME280;41676;44.610;44.078;2023-03-20T19:22:44;100126.13;;;9.88;95.82
55757;BME280;41676;44.610;44.078;2023-03-20T19:27:45;100166.84;;;10.19;95.03
55757;BME280;41676;44.610;44.078;2023-03-20T19:32:45;100140.53;;;10.01;94.68
55757;BME280;41676;44.610;44.078;2023-03-20T19:37:46;100167.72;;;10.12;94.59
55757;BME280;41676;44.610;44.078;2023-03-20T19:42:47;100166.91;;;10.11;94.33
55757;BME280;41676;44.610;44.078;2023-03-20T19:47:48;100111.38;;;9.69;94.49
55757;BME280;41676;44.610;44.078;2023-03-20T19:52:48;100089.03;;;9.55;94.78
55757;BME280;41676;44.610;44.078;2023-03-20T19:57:49;100139.91;;;9.83;94.89
55757;BME280;41676;44.610;44.078;2023-03-20T20:02:51;100137.91;;;9.77;94.86
55757;BME280;41676;44.610;44.078;2023-03-20T20:07:52;100132.59;;;9.69;94.95
55757;BME280;41676;44.610;44.078;2023-03-20T20:12:53;100147.69;;;9.68;95.64
55757;BME280;41676;44.610;44.078;2023-03-20T20:17:54;100147.06;;;9.50;96.92
55757;BME280;41676;44.610;44.078;2023-03-20T20:22:56;100119.22;;;9.37;96.65
55757;BME280;41676;44.610;44.078;2023-03-20T20:27:57;100108.78;;;9.28;96.24
55757;BME280;41676;44.610;44.078;2023-03-20T20:32:58;100132.47;;;9.37;96.65
55757;BME280;41676;44.610;44.078;2023-03-20T20:37:59;100091.34;;;9.09;96.91
55757;BME280;41676;44.610;44.078;2023-03-20T20:43:00;100093.69;;;9.12;97.09
55757;BME280;41676;44.610;44.078;2023-03-20T20:48:02;100122.69;;;9.30;97.22
55757;BME280;41676;44.610;44.078;2023-03-20T20:53:06;100129.97;;;9.36;96.35
55757;BME280;41676;44.610;44.078;2023-03-20T20:58:07;100095.69;;;9.26;96.30
55757;BME280;41676;44.610;44.078;2023-03-20T21:03:08;100037.53;;;9.00;96.05
55757;BME280;41676;44.610;44.078;2023-03-20T21:08:09;100097.34;;;9.44;95.56
55757;BME280;41676;44.610;44.078;2023-03-20T21:13:11;100067.34;;;9.27;95.22
55757;BME280;41676;44.610;44.078;2023-03-20T21:18:12;100098.34;;;9.43;95.46
55757;BME280;41676;44.610;44.078;2023-03-20T21:23:13;100133.78;;;9.58;95.73
55757;BME280;41676;44.610;44.078;2023-03-20T21:28:14;100088.22;;;9.13;96.85
55757;BME280;41676;44.610;44.078;2023-03-20T21:33:15;100135.41;;;9.18;97.77
55757;BME280;41676;44.610;44.078;2023-03-20T21:38:18;100126.13;;;9.06;98.63
55757;BME280;41676;44.610;44.078;2023-03-20T21:43:20;100141.38;;;9.04;98.71
55757;BME280;41676;44.610;44.078;2023-03-20T21:48:21;100109.06;;;8.92;98.40
55757;BME280;41676;44.610;44.078;2023-03-20T21:53:22;100140.06;;;9.16;97.97
55757;BME280;41676;44.610;44.078;2023-03-20T21:58:22;100124.66;;;9.11;97.45
55757;BME280;41676;44.610;44.078;2023-03-20T22:03:23;100126.31;;;9.21;97.00
55757;BME280;41676;44.610;44.078;2023-03-20T22:08:24;100137.09;;;9.44;96.66
55757;BME280;41676;44.610;44.078;2023-03-20T22:13:25;100139.91;;;9.50;96.41
55757;BME280;41676;44.610;44.078;2023-03-20T22:18:25;100110.25;;;9.38;96.48
55757;BME280;41676;44.610;44.078;2023-03-20T22:23:27;100139.59;;;9.53;96.98
55757;BME280;41676;44.610;44.078;2023-03-20T22:28:30;100134.28;;;9.53;97.13
55757;BME280;41676;44.610;44.078;2023-03-20T22:33:31;100128.63;;;9.56;96.79
55757;BME280;41676;44.610;44.078;2023-03-20T22:38:32;100124.16;;;9.65;96.25
55757;BME280;41676;44.610;44.078;2023-03-20T22:43:32;100074.81;;;9.31;95.71
55757;BME280;41676;44.610;44.078;2023-03-20T22:48:33;100123.69;;;9.70;95.94
55757;BME280;41676;44.610;44.078;2023-03-20T22:53:34;100131.78;;;9.68;96.22
55757;BME280;41676;44.610;44.078;2023-03-20T22:58:36;100105.78;;;9.55;96.53
55757;BME280;41676;44.610;44.078;2023-03-20T23:03:37;100111.25;;;9.70;96.24
55757;BME280;41676;44.610;44.078;2023-03-20T23:08:38;100096.81;;;9.65;95.77
55757;BME280;41676;44.610;44.078;2023-03-20T23:13:39;100134.94;;;9.72;95.45
55757;BME280;41676;44.610;44.078;2023-03-20T23:18:40;100123.34;;;9.65;94.93
55757;BME280;41676;44.610;44.078;2023-03-20T23:23:41;100150.69;;;9.65;95.22
55757;BME280;41676;44.610;44.078;2023-03-20T23:28:43;100056.44;;;9.13;95.53
55757;BME280;41676;44.610;44.078;2023-03-20T23:33:51;100146.22;;;9.66;96.12
55757;BME280;41676;44.610;44.078;2023-03-20T23:38:53;100019.97;;;8.99;95.07
55757;BME280;41676;44.610;44.078;2023-03-20T23:43:54;100109.75;;;9.35;94.95
55757;BME280;41676;44.610;44.078;2023-03-20T23:48:55;100119.38;;;9.36;95.33
55757;BME280;41676;44.610;44.078;2023-03-20T23:53:55;100121.88;;;9.37;95.58
55757;BME280;41676;44.610;44.078;2023-03-20T23:58:56;100123.84;;;9.44;95.81
